Пулково

Карта отелей и гостиниц, располагающихся рядом с аэропортом Пулково :

Пулково
Санкт-Петербург
Санкт-Петербург 59° 48' 0.9612" N, 30° 15' 45" E
Код аэродрома ИКАО
ULLI
Код аэродрома RU
УЛЛИ
Координаты
N59.80027° E030.26250°
Превышение над уровнем моря
24
Основная полоса
10R/28L
Курс магнитный
097/277
Длина основной ВПП
3780
Ширина основной ВПП
60
Покрытие основной ВПП
Твёрдое
Освещение ВПП
Постоянное
Тип: 
Аэродром
Класс аэродрома: 
Международный
Принадлежность: 
ГА
Статус: 
Действующий
Страна: 
Россия
Регион: 
Санкт-Петербург
Город: 
Санкт-Петербург
Схемы аэропортов: 
Погода: 

Авиационная погода в Пулково

Регион: 
Погода METAR: 
ULLI 271500Z 30004MPS 9999 OVC019 02/M00 Q1018 R88/290050 NOSIG
Время наблюдения
2021-02-27T15:00:00Z
Температура C
2.0
Точка росы
0.0
Направление ветра
300
Скорость ветра (узлы)
8
Метео видимость
6.21
Явления погоды
Условия полета
MVFR
Аэропорт подробнее: 

Найти трансфер

С помощью этой формы Вы можете найти трансфер из аэропорта Пулково в город, аэропорт или вокзал:

Карта места

Javascript is required to view this map.

Погода в аэропортах:

Авиационная погода в Йоэнсуу

Регион: 
Погода METAR: 
EFJO 271450Z AUTO 30006KT 280V340 9999 -SHSN OVC017 M00/M02 Q1016 REFZRA
Время наблюдения
2021-02-27T14:50:00Z
Температура C
0.0
Точка росы
-2.0
Направление ветра
300
Скорость ветра (узлы)
6
Метео видимость
6.21
Явления погоды
-SHSN
Условия полета
MVFR

Авиационная погода в Челябинске

Регион: 
Погода METAR: 
USCC 271500Z 12006MPS 1700 SN BKN007 M18/M21 Q1012 R09/490345 NOSIG RMK QFE739
Время наблюдения
2021-02-27T15:00:00Z
Температура C
-18.0
Точка росы
-21.0
Направление ветра
120
Скорость ветра (узлы)
12
Метео видимость
1.06
Явления погоды
SN
Условия полета
IFR
Аэропорт подробнее: 

Авиационная погода в Атырау

Регион: 
Погода METAR: 
UATG 271500Z 23007MPS 0700 R14/1600N FG VV001 01/01 Q1009 R14/29//60 NOSIG RMK QBB050 QFE759/1012
Время наблюдения
2021-02-27T15:00:00Z
Температура C
1.0
Точка росы
1.0
Направление ветра
230
Скорость ветра (узлы)
14
Метео видимость
0.43
Явления погоды
FG
Условия полета
LIFR

Авиационная погода в Оренбурге

Регион: 
Погода METAR: 
UWOO 271500Z 13002MPS 0350 0300E R08/1700D FZFG VV002 M03/M03 Q1002 R08/850342 NOSIG RMK QBB070 QFE741/0988
Время наблюдения
2021-02-27T15:00:00Z
Температура C
-3.0
Точка росы
-3.0
Направление ветра
130
Скорость ветра (узлы)
4
Метео видимость
0.22
Явления погоды
FZFG
Условия полета
LIFR
Аэропорт подробнее: